Terminal Aerodrome Forecast
Issued by NWS

Home | Current Version | Previous Version | Text Only | Print | Product List | Glossary Off
Versions: 1 2 3 4 5 6 7 8 9 10 11 12 13 14 15

139
FTUS43 KICT 080529
TAFCNU
TAF
KCNU 080529Z 0806/0906 30013G20KT P6SM SCT060
     FM081100 32017G24KT P6SM BKN040
     FM081500 33023G30KT P6SM BKN045
     FM081700 33028G35KT P6SM BKN045
     FM090000 33015G22KT P6SM SCT250=

USA.gov is the U.S. government's official web portal to all federal, state and local government web resources and services.